createdAt,value
2022-10-06T00:09:40.881Z,100829.75
2022-10-06T00:12:07.892Z,100836.22
2022-10-06T00:14:34.749Z,100847.66
2022-10-06T00:17:01.309Z,100849.53
2022-10-06T00:19:27.910Z,100852.75
2022-10-06T00:21:54.485Z,100846.59
2022-10-06T00:24:21.013Z,100853.00
2022-10-06T00:26:47.457Z,100842.34
2022-10-06T00:29:14.752Z,100851.88
2022-10-06T00:31:41.960Z,100854.28
2022-10-06T00:34:08.432Z,100853.00
2022-10-06T00:36:35.078Z,100864.47
2022-10-06T00:39:01.627Z,100867.63
2022-10-06T00:41:28.174Z,100860.94
2022-10-06T00:43:59.644Z,100863.84
2022-10-06T00:46:55.464Z,100872.06
2022-10-06T00:49:27.337Z,100864.28
2022-10-06T00:52:04.349Z,100868.28
2022-10-06T00:54:32.340Z,100876.81
2022-10-06T00:56:59.353Z,100881.66
2022-10-06T00:59:25.932Z,100885.38
2022-10-06T01:02:00.169Z,100887.66
2022-10-06T01:04:29.637Z,100899.63
2022-10-06T01:06:59.054Z,100898.00
2022-10-06T01:09:27.103Z,100899.84
2022-10-06T01:11:57.662Z,100908.97
2022-10-06T01:14:26.072Z,100910.28
2022-10-06T01:17:11.273Z,100913.44
2022-10-06T01:19:56.978Z,100929.44
2022-10-06T01:22:39.020Z,100921.88
2022-10-06T01:25:08.072Z,100927.75
2022-10-06T01:27:37.720Z,100935.72
2022-10-06T01:30:07.233Z,100927.50
2022-10-06T01:32:36.915Z,100929.69
2022-10-06T01:35:05.374Z,100939.22
2022-10-06T01:37:31.880Z,100937.13
2022-10-06T01:39:58.338Z,100949.69
2022-10-06T01:42:25.268Z,100944.38
2022-10-06T01:44:51.753Z,100954.72
2022-10-06T01:47:18.364Z,100942.75
2022-10-06T01:49:44.841Z,100944.94
2022-10-06T01:52:11.311Z,100960.34
2022-10-06T01:54:37.840Z,100958.75
2022-10-06T01:57:06.291Z,100940.34
2022-10-06T01:59:32.884Z,100949.69
2022-10-06T02:01:59.670Z,100951.81
2022-10-06T02:04:26.267Z,100945.16
2022-10-06T02:06:55.522Z,100958.28
2022-10-06T02:09:22.929Z,100949.16
2022-10-06T02:11:49.586Z,100945.38
2022-10-06T02:14:18.073Z,100958.50
2022-10-06T02:16:45.555Z,100945.38
2022-10-06T02:19:12.131Z,100949.97
2022-10-06T02:21:39.019Z,100946.91
2022-10-06T02:24:05.737Z,100944.88
2022-10-06T02:26:32.306Z,100952.66
2022-10-06T02:28:58.909Z,100943.13
2022-10-06T02:31:25.446Z,100941.00
2022-10-06T02:33:52.051Z,100945.84
2022-10-06T02:36:18.539Z,100943.44
2022-10-06T02:38:45.061Z,100952.94
2022-10-06T02:41:11.684Z,100944.66
2022-10-06T02:43:38.211Z,100946.44
2022-10-06T02:46:12.179Z,100951.53
2022-10-06T02:48:40.860Z,100964.84
2022-10-06T02:51:11.524Z,100947.81
2022-10-06T02:53:38.569Z,100945.06
2022-10-06T02:56:08.601Z,100958.31
2022-10-06T02:58:35.054Z,100962.81
2022-10-06T03:01:09.837Z,100960.75
2022-10-06T03:03:36.885Z,100960.75
2022-10-06T03:06:21.765Z,100958.31
2022-10-06T03:09:03.805Z,100958.47
2022-10-06T03:11:32.914Z,100964.09
2022-10-06T03:13:59.997Z,100960.41
2022-10-06T03:16:35.553Z,100972.59
2022-10-06T03:19:02.245Z,100970.56
2022-10-06T03:21:31.782Z,100966.28
2022-10-06T03:23:59.185Z,100976.47
2022-10-06T03:26:32.372Z,100976.72
2022-10-06T03:28:59.118Z,100970.09
2022-10-06T03:31:26.248Z,100976.22
2022-10-06T03:33:54.450Z,100974.13
2022-10-06T03:36:22.557Z,100987.94
2022-10-06T03:38:49.179Z,100988.72
2022-10-06T03:41:19.259Z,100984.47
2022-10-06T03:43:47.847Z,100991.88
2022-10-06T03:46:19.868Z,100991.88
2022-10-06T03:48:47.996Z,100999.38
2022-10-06T03:51:16.013Z,101006.03
2022-10-06T03:53:47.219Z,100994.31
2022-10-06T03:56:16.751Z,100997.72
2022-10-06T03:59:04.706Z,100999.56
2022-10-06T04:01:33.588Z,101011.25
2022-10-06T04:04:01.776Z,101004.66
2022-10-06T04:06:30.397Z,101009.31
2022-10-06T04:08:57.931Z,101017.31
2022-10-06T04:11:30.552Z,101020.13
2022-10-06T04:14:01.701Z,101028.69
2022-10-06T04:16:36.135Z,101046.53
2022-10-06T04:19:05.576Z,101034.28
2022-10-06T04:21:36.197Z,101031.03
2022-10-06T04:24:03.833Z,101042.97
2022-10-06T04:26:33.113Z,101045.16
2022-10-06T04:29:00.782Z,101045.63
2022-10-06T04:31:32.890Z,101042.66
2022-10-06T04:34:01.107Z,101049.50
2022-10-06T04:36:29.989Z,101048.13
2022-10-06T04:38:58.843Z,101050.19
2022-10-06T04:41:33.705Z,101069.66
2022-10-06T04:44:01.023Z,101066.09
2022-10-06T04:46:42.757Z,101079.31
2022-10-06T04:49:13.553Z,101073.06
2022-10-06T04:51:45.477Z,101076.53
2022-10-06T04:54:12.068Z,101088.81
2022-10-06T04:56:38.587Z,101085.56
2022-10-06T04:59:05.181Z,101080.03
2022-10-06T05:01:36.844Z,101082.69
2022-10-06T05:04:05.963Z,101092.50
2022-10-06T05:06:35.650Z,101093.34
2022-10-06T05:09:05.840Z,101097.03
2022-10-06T05:11:33.310Z,101101.22
2022-10-06T05:13:59.854Z,101111.31
2022-10-06T05:16:28.525Z,101100.88
2022-10-06T05:18:55.141Z,101112.91
2022-10-06T05:21:30.626Z,101120.09
2022-10-06T05:23:57.421Z,101111.66
2022-10-06T05:26:26.613Z,101124.16
2022-10-06T05:28:53.116Z,101125.66
2022-10-06T05:31:22.282Z,101117.09
2022-10-06T05:33:48.872Z,101128.63
2022-10-06T05:36:18.342Z,101132.69
2022-10-06T05:38:45.233Z,101125.75
2022-10-06T05:41:14.825Z,101131.00
2022-10-06T05:43:42.269Z,101136.78
2022-10-06T05:46:17.507Z,101131.47
2022-10-06T05:48:49.238Z,101135.38
2022-10-06T05:51:17.431Z,101130.06
2022-10-06T05:53:44.454Z,101135.25
2022-10-06T05:56:16.507Z,101143.81
2022-10-06T05:58:45.097Z,101146.63
2022-10-06T06:01:15.580Z,101138.38
2022-10-06T06:03:47.503Z,101154.34
2022-10-06T06:06:20.602Z,101142.91
2022-10-06T06:08:51.462Z,101145.56
2022-10-06T06:11:18.003Z,101150.28
2022-10-06T06:13:44.473Z,101152.75
2022-10-06T06:16:15.519Z,101141.75
2022-10-06T06:18:42.220Z,101147.88
2022-10-06T06:21:10.356Z,101158.97
2022-10-06T06:23:39.376Z,101160.38
2022-10-06T06:26:11.311Z,101159.31
2022-10-06T06:28:37.943Z,101166.41
2022-10-06T06:31:10.718Z,101162.44
2022-10-06T06:33:39.648Z,101160.63
2022-10-06T06:36:46.988Z,101157.97
2022-10-06T06:39:14.796Z,101170.78
2022-10-06T06:41:45.176Z,101177.97
2022-10-06T06:44:12.179Z,101172.19
2022-10-06T06:46:39.652Z,101182.34
2022-10-06T06:49:06.830Z,101168.81
2022-10-06T06:51:38.228Z,101170.22
2022-10-06T06:54:05.337Z,101177.59
2022-10-06T06:56:35.252Z,101167.31
2022-10-06T06:59:06.644Z,101182.03
2022-10-06T07:01:33.156Z,101176.81
2022-10-06T07:03:59.818Z,101181.06
2022-10-06T07:06:29.116Z,101183.88
2022-10-06T07:08:57.833Z,101170.91
2022-10-06T07:11:32.871Z,101184.44
2022-10-06T07:14:05.470Z,101188.94
2022-10-06T07:16:51.838Z,101198.88
2022-10-06T07:19:39.158Z,101191.47
2022-10-06T07:22:27.203Z,101208.81
2022-10-06T07:25:07.246Z,101209.16
2022-10-06T07:27:38.345Z,101200.25
2022-10-06T07:30:05.651Z,101203.25
2022-10-06T07:32:32.641Z,101194.31
2022-10-06T07:34:59.481Z,101214.34
2022-10-06T07:37:27.088Z,101204.97
2022-10-06T07:39:53.562Z,101185.59
2022-10-06T07:42:20.588Z,101192.06
2022-10-06T07:45:07.773Z,101202.84
2022-10-06T07:47:35.194Z,101202.94
2022-10-06T07:50:01.701Z,101216.97
2022-10-06T07:52:31.091Z,101215.09
2022-10-06T07:55:01.105Z,101217.19
2022-10-06T07:57:32.592Z,101209.88
2022-10-06T08:00:02.905Z,101211.81
2022-10-06T08:02:33.010Z,101222.00
2022-10-06T08:05:02.154Z,101208.75
2022-10-06T08:07:28.657Z,101223.25
2022-10-06T08:09:55.274Z,101216.06
2022-10-06T08:12:34.014Z,101220.34
2022-10-06T08:15:06.877Z,101222.22
2022-10-06T08:17:36.477Z,101221.50
2022-10-06T08:20:04.843Z,101218.69
2022-10-06T08:22:31.541Z,101215.31
2022-10-06T08:25:06.832Z,101220.72
2022-10-06T08:27:35.415Z,101220.78
2022-10-06T08:30:03.575Z,101229.94
2022-10-06T08:32:30.045Z,101211.94
2022-10-06T08:34:57.070Z,101221.44
2022-10-06T08:37:24.580Z,101228.69
2022-10-06T08:39:51.521Z,101215.13
2022-10-06T08:42:24.816Z,101220.88
2022-10-06T08:44:58.272Z,101199.75
2022-10-06T08:47:29.077Z,101215.69
2022-10-06T08:49:57.155Z,101220.56
2022-10-06T08:52:49.797Z,101221.09
2022-10-06T08:55:29.369Z,101231.53
2022-10-06T08:58:05.312Z,101230.34
2022-10-06T09:00:35.461Z,101223.22
2022-10-06T09:03:02.412Z,101246.03
2022-10-06T09:05:31.318Z,101232.75
2022-10-06T09:08:19.523Z,101247.94
2022-10-06T09:11:31.551Z,101253.47
2022-10-06T09:14:10.009Z,101241.56
2022-10-06T09:16:41.436Z,101237.69
2022-10-06T09:19:37.382Z,101244.69
2022-10-06T09:22:06.936Z,101245.34
2022-10-06T09:24:47.238Z,101234.22
2022-10-06T09:27:23.972Z,101237.88
2022-10-06T09:29:51.509Z,101238.63
2022-10-06T09:32:20.752Z,101250.47
2022-10-06T09:34:56.063Z,101240.63
2022-10-06T09:37:23.655Z,101241.63
2022-10-06T09:39:52.161Z,101250.06
2022-10-06T09:42:29.552Z,101243.50
2022-10-06T09:44:57.737Z,101248.47
2022-10-06T09:47:33.433Z,101247.56
2022-10-06T09:50:11.320Z,101245.47
2022-10-06T09:52:42.963Z,101255.66
2022-10-06T09:55:18.855Z,101250.03
2022-10-06T09:57:53.945Z,101251.72
2022-10-06T10:00:36.047Z,101253.19
2022-10-06T10:03:09.095Z,101250.31
2022-10-06T10:05:38.520Z,101258.16
2022-10-06T10:08:13.924Z,101242.56
2022-10-06T10:10:41.221Z,101247.19
2022-10-06T10:13:24.206Z,101240.50
2022-10-06T10:15:55.257Z,101243.72
2022-10-06T10:18:26.835Z,101245.06
2022-10-06T10:21:05.075Z,101251.56
2022-10-06T10:23:54.477Z,101237.38
2022-10-06T10:26:31.733Z,101247.31
2022-10-06T10:29:33.859Z,101251.63
2022-10-06T10:32:03.307Z,101240.59
2022-10-06T10:34:48.797Z,101233.63
2022-10-06T10:37:21.883Z,101239.53
2022-10-06T10:39:54.401Z,101231.94
2022-10-06T10:42:30.840Z,101236.78
2022-10-06T10:45:01.469Z,101234.34
2022-10-06T10:47:43.498Z,101233.13
2022-10-06T10:50:37.681Z,101235.88
2022-10-06T10:53:32.997Z,101234.88
2022-10-06T10:56:03.763Z,101242.28
2022-10-06T10:58:38.018Z,101252.88
2022-10-06T11:01:12.181Z,101246.72
2022-10-06T11:03:38.796Z,101244.84
2022-10-06T11:06:14.832Z,101246.47
2022-10-06T11:08:44.178Z,101247.56
2022-10-06T11:11:30.601Z,101250.75
2022-10-06T11:14:02.075Z,101246.94
2022-10-06T11:16:31.641Z,101239.94
2022-10-06T11:18:58.476Z,101245.47
2022-10-06T11:21:52.532Z,101239.28
2022-10-06T11:24:25.053Z,101245.41
2022-10-06T11:27:40.537Z,101250.50
2022-10-06T11:30:19.690Z,101252.84
2022-10-06T11:33:01.561Z,101247.75
2022-10-06T11:35:36.620Z,101246.19
2022-10-06T11:38:15.690Z,101245.44
2022-10-06T11:41:10.316Z,101238.75
2022-10-06T11:44:00.490Z,101234.47
2022-10-06T11:46:45.456Z,101237.41
2022-10-06T11:49:30.359Z,101238.84
2022-10-06T11:52:17.374Z,101231.75
2022-10-06T11:54:43.831Z,101229.59
2022-10-06T11:57:25.113Z,101245.53
2022-10-06T11:59:56.987Z,101223.91
2022-10-06T12:02:32.773Z,101211.03
2022-10-06T12:05:55.400Z,101212.44
2022-10-06T12:08:01.269Z,101211.72
2022-10-06T12:10:27.786Z,101210.50
2022-10-06T12:19:18.607Z,101208.78
2022-10-06T12:21:48.254Z,101211.13
2022-10-06T12:24:24.654Z,101206.91
2022-10-06T12:27:01.400Z,101204.28
2022-10-06T12:29:38.171Z,101203.00
2022-10-06T12:32:11.071Z,101205.59
2022-10-06T12:35:19.308Z,101193.16
2022-10-06T12:37:56.318Z,101207.22
2022-10-06T12:40:49.387Z,101206.91
2022-10-06T12:43:18.747Z,101201.69
2022-10-06T12:46:08.111Z,101192.88
2022-10-06T12:48:37.977Z,101192.25
2022-10-06T12:51:13.525Z,101195.22
2022-10-06T12:53:50.310Z,101197.16
2022-10-06T12:56:32.167Z,101205.22
2022-10-06T12:58:58.852Z,101199.19
2022-10-06T13:01:28.014Z,101193.41
2022-10-06T13:03:55.421Z,101187.88
2022-10-06T13:06:24.354Z,101200.47
2022-10-06T13:09:14.374Z,101196.41
2022-10-06T13:11:41.034Z,101196.16
2022-10-06T13:14:13.983Z,101193.06
2022-10-06T13:16:46.923Z,101187.03
2022-10-06T13:19:21.587Z,101186.09
2022-10-06T13:21:48.343Z,101196.66
2022-10-06T13:24:20.474Z,101180.31
2022-10-06T13:26:48.231Z,101178.13
2022-10-06T13:29:25.714Z,101185.00
2022-10-06T13:31:54.537Z,101181.41
2022-10-06T13:34:24.273Z,101184.19
2022-10-06T13:36:52.460Z,101172.41
2022-10-06T13:39:25.432Z,101167.34
2022-10-06T13:42:10.233Z,101150.00
2022-10-06T13:44:49.941Z,101169.13
2022-10-06T13:47:18.634Z,101150.84
2022-10-06T13:50:15.921Z,101164.19
2022-10-06T13:52:48.039Z,101156.75
2022-10-06T13:55:23.399Z,101166.63
2022-10-06T13:58:03.356Z,101168.75
2022-10-06T14:00:48.712Z,101168.19
2022-10-06T14:06:22.155Z,101165.75
2022-10-06T14:08:55.200Z,101159.09
2022-10-06T14:11:26.473Z,101152.06
2022-10-06T14:14:00.460Z,101151.00
2022-10-06T14:16:29.502Z,101167.56
2022-10-06T14:19:00.461Z,101150.25
2022-10-06T14:21:34.019Z,101155.19
2022-10-06T14:24:04.854Z,101164.09
2022-10-06T14:26:36.214Z,101165.50
2022-10-06T14:29:03.752Z,101155.69
2022-10-06T14:31:34.042Z,101158.34
2022-10-06T14:34:02.046Z,101158.63
2022-10-06T14:36:31.201Z,101169.13
2022-10-06T14:38:59.005Z,101156.81
2022-10-06T14:41:28.283Z,101163.38
2022-10-06T14:43:56.584Z,101150.06
2022-10-06T14:46:25.221Z,101155.31
2022-10-06T14:48:52.462Z,101147.38
2022-10-06T14:51:20.336Z,101144.56
2022-10-06T14:53:54.851Z,101146.75
2022-10-06T14:56:23.977Z,101145.81
2022-10-06T14:58:51.447Z,101147.22
2022-10-06T15:01:20.884Z,101148.38
2022-10-06T15:03:55.223Z,101138.03
2022-10-06T15:06:40.874Z,101148.69
2022-10-06T15:09:08.267Z,101138.50
2022-10-06T15:11:35.884Z,101138.22
2022-10-06T15:14:03.428Z,101133.97
2022-10-06T15:16:31.713Z,101139.09
2022-10-06T15:18:59.815Z,101130.84
2022-10-06T15:21:27.291Z,101128.50
2022-10-06T15:23:59.506Z,101134.06
2022-10-06T15:26:45.044Z,101126.47
2022-10-06T15:29:13.393Z,101118.19
2022-10-06T15:31:42.403Z,101122.00
2022-10-06T15:34:14.055Z,101114.00
2022-10-06T15:36:42.384Z,101123.56
2022-10-06T15:39:11.539Z,101114.97
2022-10-06T15:41:40.548Z,101116.84
2022-10-06T15:44:08.452Z,101109.06
2022-10-06T15:46:40.432Z,101114.56
2022-10-06T15:49:09.789Z,101115.25
2022-10-06T15:51:49.702Z,101116.44
2022-10-06T15:54:21.975Z,101125.97
2022-10-06T15:56:50.353Z,101119.53
2022-10-06T15:59:19.024Z,101127.88
2022-10-06T16:01:47.633Z,101127.66
2022-10-06T16:04:24.713Z,101126.09
2022-10-06T16:06:58.066Z,101109.66
2022-10-06T16:09:27.662Z,101113.91
2022-10-06T16:11:54.921Z,101101.19
2022-10-06T16:14:22.380Z,101103.06
2022-10-06T16:16:49.065Z,101098.88
2022-10-06T16:19:16.683Z,101112.41
2022-10-06T16:21:44.052Z,101124.53
2022-10-06T16:24:10.651Z,101121.56
2022-10-06T16:26:37.509Z,101125.75
2022-10-06T16:29:04.961Z,101120.13
2022-10-06T16:31:32.371Z,101120.31
2022-10-06T16:33:59.005Z,101116.31
2022-10-06T16:36:25.606Z,101116.25
2022-10-06T16:38:53.524Z,101101.59
2022-10-06T16:41:21.312Z,101105.69
2022-10-06T16:43:49.993Z,101103.09
2022-10-06T16:46:21.005Z,101094.31
2022-10-06T16:48:48.549Z,101099.41
2022-10-06T16:51:17.826Z,101088.69
2022-10-06T16:53:50.087Z,101098.59
2022-10-06T16:56:22.522Z,101087.34
2022-10-06T16:58:54.040Z,101093.97
2022-10-06T17:01:23.894Z,101080.75
2022-10-06T17:04:02.832Z,101095.00
2022-10-06T17:06:30.101Z,101094.81
2022-10-06T17:08:57.009Z,101083.25
2022-10-06T17:11:25.512Z,101085.66
2022-10-06T17:13:54.397Z,101081.31
2022-10-06T17:16:23.574Z,101071.66
2022-10-06T17:18:51.706Z,101082.47
2022-10-06T17:21:43.269Z,101073.59
2022-10-06T17:24:05.819Z,101073.16
2022-10-06T17:26:37.671Z,101076.69
2022-10-06T17:29:06.758Z,101074.03
2022-10-06T17:31:38.447Z,101071.38
2022-10-06T17:34:11.264Z,101075.63
2022-10-06T17:36:42.893Z,101066.75
2022-10-06T17:39:13.276Z,101079.91
2022-10-06T17:41:42.104Z,101086.09
2022-10-06T17:44:14.267Z,101084.25
2022-10-06T17:46:42.600Z,101083.44
2022-10-06T17:49:10.967Z,101094.25
2022-10-06T17:51:40.845Z,101084.88
2022-10-06T17:54:12.832Z,101095.91
2022-10-06T17:56:39.652Z,101093.75
2022-10-06T17:59:08.633Z,101101.06
2022-10-06T18:01:36.718Z,101091.66
2022-10-06T18:04:05.801Z,101097.03
2022-10-06T18:06:34.525Z,101094.09
2022-10-06T18:09:02.893Z,101098.66
2022-10-06T18:11:34.006Z,101095.72
2022-10-06T18:14:04.967Z,101097.31
2022-10-06T18:16:36.453Z,101089.00
2022-10-06T18:19:09.581Z,101093.56
2022-10-06T18:21:38.841Z,101091.72
2022-10-06T18:24:17.060Z,101097.88
2022-10-06T18:26:48.295Z,101091.44
2022-10-06T18:29:37.136Z,101094.16
2022-10-06T18:37:38.705Z,101090.38
2022-10-06T18:40:08.683Z,101092.81
2022-10-06T18:42:35.917Z,101102.22
2022-10-06T18:45:21.344Z,101086.91
2022-10-06T18:48:06.594Z,101094.19
2022-10-06T18:50:33.475Z,101098.22
2022-10-06T18:52:59.996Z,101104.94
2022-10-06T18:55:27.837Z,101103.59
2022-10-06T18:57:54.751Z,101101.22
2022-10-06T19:00:21.924Z,101118.91
2022-10-06T19:02:52.176Z,101098.78
2022-10-06T19:05:18.764Z,101109.00
2022-10-06T19:07:45.673Z,101109.50
2022-10-06T19:10:12.614Z,101103.06
2022-10-06T19:12:39.195Z,101103.91
2022-10-06T19:15:06.195Z,101098.81
2022-10-06T19:17:32.772Z,101096.13
2022-10-06T19:19:59.307Z,101089.69
2022-10-06T19:22:25.806Z,101090.22
2022-10-06T19:24:52.622Z,101092.38
2022-10-06T19:27:28.948Z,101090.47
2022-10-06T19:29:56.744Z,101083.50
2022-10-06T19:32:27.145Z,101086.50
2022-10-06T19:34:57.876Z,101093.47
2022-10-06T19:37:27.009Z,101089.16
2022-10-06T19:39:53.837Z,101094.25
2022-10-06T19:42:39.616Z,101091.34
2022-10-06T19:45:08.308Z,101095.34
2022-10-06T19:47:34.950Z,101088.59
2022-10-06T19:50:05.926Z,101093.19
2022-10-06T19:52:34.933Z,101084.31
2022-10-06T19:55:01.440Z,101087.03
2022-10-06T19:57:29.777Z,101086.47
2022-10-06T19:59:56.458Z,101082.72
2022-10-06T20:02:23.443Z,101089.16
2022-10-06T20:04:50.546Z,101088.09
2022-10-06T20:07:17.265Z,101076.56
2022-10-06T20:09:44.164Z,101073.31
2022-10-06T20:12:10.713Z,101079.75
2022-10-06T20:14:37.285Z,101085.94
2022-10-06T20:17:04.005Z,101096.69
2022-10-06T20:19:30.977Z,101080.56
2022-10-06T20:21:57.976Z,101066.09
2022-10-06T20:24:25.775Z,101063.41
2022-10-06T20:26:53.459Z,101062.63
2022-10-06T20:29:25.329Z,101073.34
2022-10-06T20:31:56.633Z,101060.19
2022-10-06T20:34:25.454Z,101055.63
2022-10-06T20:36:55.876Z,101051.88
2022-10-06T20:39:42.953Z,101044.88
2022-10-06T20:42:15.032Z,101043.81
2022-10-06T20:44:43.185Z,101053.22
2022-10-06T20:47:10.829Z,101057.50
2022-10-06T20:49:37.443Z,101060.19
2022-10-06T20:52:05.333Z,101057.50
2022-10-06T20:54:35.074Z,101047.84
2022-10-06T20:57:04.448Z,101050.00
2022-10-06T20:59:31.685Z,101048.41
2022-10-06T21:02:00.091Z,101048.66
2022-10-06T21:04:27.692Z,101037.66
2022-10-06T21:06:54.246Z,101038.19
2022-10-06T21:09:20.883Z,101037.91
2022-10-06T21:11:47.781Z,101029.63
2022-10-06T21:14:15.210Z,101028.00
2022-10-06T21:16:44.503Z,101018.88
2022-10-06T21:19:16.699Z,101025.56
2022-10-06T21:21:49.703Z,101014.56
2022-10-06T21:24:16.590Z,101017.81
2022-10-06T21:26:43.072Z,101015.91
2022-10-06T21:29:12.937Z,100998.50
2022-10-06T21:31:39.984Z,101001.19
2022-10-06T21:34:06.555Z,100999.56
2022-10-06T21:36:33.329Z,101004.91
2022-10-06T21:39:01.470Z,100999.03
2022-10-06T21:41:36.186Z,100991.78
2022-10-06T21:44:08.050Z,101004.38
2022-10-06T21:46:38.184Z,100992.84
2022-10-06T21:49:07.295Z,100983.50
2022-10-06T21:51:33.973Z,100985.91
2022-10-06T21:54:01.438Z,100987.22
2022-10-06T21:56:30.248Z,100974.63
2022-10-06T21:58:57.363Z,100980.53
2022-10-06T22:01:26.655Z,100969.00
2022-10-06T22:03:53.673Z,100975.69
2022-10-06T22:06:21.624Z,100978.66
2022-10-06T22:08:48.725Z,100971.69
2022-10-06T22:11:24.421Z,100963.38
2022-10-06T22:13:54.809Z,100966.59
2022-10-06T22:16:23.555Z,100961.50
2022-10-06T22:18:50.899Z,100962.56
2022-10-06T22:21:20.351Z,100948.63
2022-10-06T22:23:52.726Z,100947.28
2022-10-06T22:26:19.415Z,100939.53
2022-10-06T22:28:48.520Z,100949.69
2022-10-06T22:31:16.284Z,100943.53
2022-10-06T22:33:44.282Z,100943.53
2022-10-06T22:36:13.768Z,100937.09
2022-10-06T22:38:40.583Z,100944.59
2022-10-06T22:41:09.485Z,100929.59
2022-10-06T22:43:36.435Z,100935.47
2022-10-06T22:46:03.864Z,100932.78
2022-10-06T22:48:30.503Z,100927.72
2022-10-06T22:50:57.016Z,100933.34
2022-10-06T22:53:25.039Z,100933.06
2022-10-06T22:55:51.964Z,100924.50
2022-10-06T22:58:19.416Z,100916.19
2022-10-06T23:00:46.274Z,100915.41
2022-10-06T23:03:13.315Z,100905.72
2022-10-06T23:05:40.341Z,100898.75
2022-10-06T23:08:08.191Z,100898.78
2022-10-06T23:10:36.159Z,100898.25
2022-10-06T23:13:03.254Z,100893.13
2022-10-06T23:15:29.983Z,100893.94
2022-10-06T23:17:56.587Z,100895.00
2022-10-06T23:20:23.127Z,100891.75
2022-10-06T23:22:49.613Z,100884.53
2022-10-06T23:25:16.184Z,100876.78
2022-10-06T23:27:42.867Z,100871.16
2022-10-06T23:30:10.214Z,100874.06
2022-10-06T23:32:37.513Z,100874.63
2022-10-06T23:35:04.592Z,100870.88
2022-10-06T23:37:31.190Z,100866.84
2022-10-06T23:39:57.702Z,100859.88
2022-10-06T23:42:24.204Z,100858.53
2022-10-06T23:44:50.695Z,100850.78
2022-10-06T23:47:17.158Z,100858.81
2022-10-06T23:49:43.684Z,100861.50
2022-10-06T23:52:10.670Z,100853.47
2022-10-06T23:54:37.569Z,100854.53
2022-10-06T23:57:04.285Z,100858.81
2022-10-06T23:59:31.507Z,100856.94
